Time;durP1;ratioP1;P1;durP2;ratioP2;P2;SDS_P1;SDS_P2;PMS_P1;PMS_P2;Temp;Humidity;BMP_temperature;BMP_pressure;BME280_temperature;BME280_humidity;BME280_pressure;Samples;Min_cycle;Max_cycle;Signal;HPM_P1;HPM_P2
2022/09/02 00:01:36;;;;;;;61.40;5.70;;;;;;;;;;5073778;28;20451;-66
2022/09/02 00:04:05;;;;;;;61.87;5.53;;;;;;;;;;5073466;28;20479;-66
2022/09/02 00:06:34;;;;;;;61.67;5.53;;;;;;;;;;5073655;28;20455;-66
2022/09/02 00:09:01;;;;;;;61.90;6.20;;;;;;;;;;5073306;28;20817;-66
2022/09/02 00:11:30;;;;;;;60.80;5.10;;;;;;;;;;5072971;28;20499;-66
2022/09/02 00:13:57;;;;;;;60.13;4.80;;;;;;;;;;5073687;28;20481;-66
2022/09/02 00:16:26;;;;;;;61.30;4.87;;;;;;;;;;5073846;28;20500;-66
2022/09/02 00:18:55;;;;;;;62.10;5.10;;;;;;;;;;5073078;28;20815;-66
2022/09/02 00:21:23;;;;;;;60.27;4.50;;;;;;;;;;5073387;28;20448;-66
2022/09/02 00:23:52;;;;;;;61.47;5.00;;;;;;;;;;5072869;28;20475;-66
2022/09/02 00:26:19;;;;;;;61.70;6.07;;;;;;;;;;5071105;28;20816;-66
2022/09/02 00:28:46;;;;;;;61.27;5.03;;;;;;;;;;5073080;28;20439;-66
2022/09/02 00:31:14;;;;;;;61.70;5.20;;;;;;;;;;5072850;28;20494;-66
2022/09/02 00:33:41;;;;;;;62.67;5.40;;;;;;;;;;5073031;28;20473;-66
2022/09/02 00:36:08;;;;;;;60.20;4.77;;;;;;;;;;5072947;28;20460;-66
2022/09/02 00:38:36;;;;;;;62.53;6.23;;;;;;;;;;5072711;28;20448;-66
2022/09/02 00:41:06;;;;;;;61.40;5.20;;;;;;;;;;5073174;28;20448;-66
2022/09/02 00:43:43;;;;;;;62.50;5.67;;;;;;;;;;5073156;28;20470;-66
2022/09/02 00:46:11;;;;;;;65.67;6.03;;;;;;;;;;5073018;28;20443;-66
2022/09/02 00:48:40;;;;;;;61.13;4.90;;;;;;;;;;5072555;28;21096;-66
2022/09/02 00:51:07;;;;;;;62.17;5.70;;;;;;;;;;5072728;28;21012;-66
2022/09/02 00:53:34;;;;;;;62.40;5.20;;;;;;;;;;5072282;28;20467;-66
2022/09/02 00:56:02;;;;;;;61.17;5.60;;;;;;;;;;5072651;28;20474;-66
2022/09/02 00:58:33;;;;;;;63.07;6.07;;;;;;;;;;5069921;28;20455;-66
2022/09/02 01:01:00;;;;;;;62.17;4.73;;;;;;;;;;5072534;28;20447;-66
2022/09/02 01:03:29;;;;;;;60.47;4.33;;;;;;;;;;5072243;28;20991;-66
2022/09/02 01:05:57;;;;;;;63.13;4.90;;;;;;;;;;5072575;28;20469;-66
2022/09/02 01:08:25;;;;;;;62.50;4.97;;;;;;;;;;5072324;28;20447;-66
2022/09/02 01:10:54;;;;;;;60.80;5.23;;;;;;;;;;5072180;28;20504;-66
2022/09/02 01:13:23;;;;;;;61.33;5.07;;;;;;;;;;5071918;28;20475;-66
2022/09/02 01:15:54;;;;;;;60.77;4.77;;;;;;;;;;5072262;28;20459;-66
2022/09/02 01:18:23;;;;;;;61.33;5.73;;;;;;;;;;5072243;28;20443;-66
2022/09/02 01:20:50;;;;;;;61.83;5.27;;;;;;;;;;5071858;28;20547;-66
2022/09/02 01:23:19;;;;;;;61.03;5.13;;;;;;;;;;5072213;28;20507;-66
2022/09/02 01:25:47;;;;;;;60.47;4.73;;;;;;;;;;5072250;28;20454;-66
2022/09/02 01:28:15;;;;;;;60.67;5.10;;;;;;;;;;5071995;28;20477;-66
2022/09/02 01:30:44;;;;;;;61.17;5.00;;;;;;;;;;5069234;28;20451;-66
2022/09/02 01:33:11;;;;;;;60.40;4.40;;;;;;;;;;5071646;28;20502;-66
2022/09/02 01:35:39;;;;;;;61.00;4.90;;;;;;;;;;5072050;28;20854;-66
2022/09/02 01:38:06;;;;;;;61.00;4.90;;;;;;;;;;5071949;28;20936;-66
2022/09/02 01:40:35;;;;;;;59.40;4.17;;;;;;;;;;5071637;28;20474;-66
2022/09/02 01:43:06;;;;;;;61.47;5.43;;;;;;;;;;5071603;28;21055;-66
2022/09/02 01:45:33;;;;;;;61.07;5.00;;;;;;;;;;5056575;28;20796;-66
2022/09/02 01:48:00;;;;;;;61.10;5.10;;;;;;;;;;5051794;28;20933;-66
2022/09/02 01:50:28;;;;;;;60.90;4.90;;;;;;;;;;5051471;28;20458;-66
2022/09/02 01:52:55;;;;;;;61.50;4.70;;;;;;;;;;5051289;28;20492;-66
2022/09/02 01:55:22;;;;;;;61.97;5.30;;;;;;;;;;5051978;28;20463;-66
2022/09/02 01:57:50;;;;;;;62.90;5.77;;;;;;;;;;5051763;28;20502;-66
2022/09/02 02:00:18;;;;;;;61.57;5.03;;;;;;;;;;5051367;28;20444;-66
2022/09/02 02:02:45;;;;;;;60.87;4.87;;;;;;;;;;5071634;28;20514;-66
2022/09/02 02:05:12;;;;;;;59.77;4.13;;;;;;;;;;5071431;28;20950;-66
2022/09/02 02:07:41;;;;;;;60.37;4.50;;;;;;;;;;5071876;28;20451;-66
2022/09/02 02:10:09;;;;;;;61.37;4.50;;;;;;;;;;5071501;28;20549;-66
2022/09/02 02:12:36;;;;;;;61.20;5.33;;;;;;;;;;5071451;28;21085;-66
2022/09/02 02:15:05;;;;;;;60.53;4.43;;;;;;;;;;5071148;28;20454;-66
2022/09/02 02:17:32;;;;;;;60.97;4.60;;;;;;;;;;5071496;28;20473;-66
2022/09/02 02:19:59;;;;;;;60.87;4.00;;;;;;;;;;5074891;28;20453;-66
2022/09/02 02:22:28;;;;;;;62.10;5.23;;;;;;;;;;5075684;28;20459;-66
2022/09/02 02:24:55;;;;;;;60.93;4.83;;;;;;;;;;5075649;28;20447;-66
2022/09/02 02:27:22;;;;;;;60.07;4.40;;;;;;;;;;5075974;28;20804;-66
2022/09/02 02:29:49;;;;;;;61.10;5.20;;;;;;;;;;5075239;28;20546;-66
2022/09/02 02:32:18;;;;;;;60.23;4.33;;;;;;;;;;5072301;28;20536;-66
2022/09/02 02:34:45;;;;;;;60.67;5.30;;;;;;;;;;5075089;28;20839;-66
2022/09/02 02:37:12;;;;;;;62.40;5.70;;;;;;;;;;5075409;28;20471;-66
2022/09/02 02:39:39;;;;;;;63.37;5.07;;;;;;;;;;5075150;28;20443;-66
2022/09/02 02:42:07;;;;;;;61.03;5.50;;;;;;;;;;5075153;28;20439;-66
2022/09/02 02:44:34;;;;;;;62.07;6.00;;;;;;;;;;5075029;28;20448;-66
2022/09/02 02:47:02;;;;;;;62.37;5.57;;;;;;;;;;5075467;28;20444;-66
2022/09/02 02:49:30;;;;;;;61.20;5.17;;;;;;;;;;5075158;28;20444;-66
2022/09/02 02:51:57;;;;;;;59.87;4.17;;;;;;;;;;5075100;28;20479;-66
2022/09/02 02:54:24;;;;;;;61.57;6.00;;;;;;;;;;5074634;28;20455;-66
2022/09/02 02:56:51;;;;;;;61.27;5.63;;;;;;;;;;5075318;28;20447;-66
2022/09/02 02:59:18;;;;;;;59.90;4.23;;;;;;;;;;5074571;28;20455;-66
2022/09/02 03:01:46;;;;;;;61.97;5.50;;;;;;;;;;5075027;28;20443;-66
2022/09/02 03:04:13;;;;;;;60.07;3.87;;;;;;;;;;5071495;28;21065;-66
2022/09/02 03:06:41;;;;;;;62.50;5.90;;;;;;;;;;5074840;28;20526;-66
2022/09/02 03:09:09;;;;;;;60.57;5.13;;;;;;;;;;5074828;28;20447;-66
2022/09/02 03:11:36;;;;;;;62.10;5.40;;;;;;;;;;5074682;28;20443;-66
2022/09/02 03:14:04;;;;;;;62.10;6.37;;;;;;;;;;5074857;28;20469;-66
2022/09/02 03:16:31;;;;;;;61.87;5.67;;;;;;;;;;5074322;28;20462;-67
2022/09/02 03:18:58;;;;;;;60.97;5.33;;;;;;;;;;5074164;28;20461;-66
2022/09/02 03:21:25;;;;;;;60.60;5.10;;;;;;;;;;5074792;28;20454;-66
2022/09/02 03:23:54;;;;;;;60.20;4.60;;;;;;;;;;5074336;28;20474;-66
2022/09/02 03:26:25;;;;;;;60.47;4.80;;;;;;;;;;5074177;28;20870;-66
2022/09/02 03:28:54;;;;;;;62.83;5.97;;;;;;;;;;5074347;28;20443;-66
2022/09/02 03:31:23;;;;;;;61.13;4.80;;;;;;;;;;5074356;28;20500;-66
2022/09/02 03:33:50;;;;;;;60.73;4.83;;;;;;;;;;5074273;28;21037;-66
2022/09/02 03:36:21;;;;;;;60.57;4.70;;;;;;;;;;5073651;28;20952;-66
2022/09/02 03:38:48;;;;;;;60.17;4.70;;;;;;;;;;5074045;28;20486;-66
2022/09/02 03:41:17;;;;;;;63.07;5.20;;;;;;;;;;5071153;28;20459;-66
2022/09/02 03:43:44;;;;;;;60.37;4.67;;;;;;;;;;5073911;28;20469;-66
2022/09/02 03:46:12;;;;;;;60.30;5.07;;;;;;;;;;5074055;28;20443;-66
2022/09/02 03:48:39;;;;;;;62.07;4.40;;;;;;;;;;5073816;28;20487;-66
2022/09/02 03:51:07;;;;;;;60.37;4.47;;;;;;;;;;5073909;28;20470;-66
2022/09/02 03:53:35;;;;;;;61.77;5.20;;;;;;;;;;5073985;28;20519;-66
2022/09/02 03:56:05;;;;;;;62.73;5.03;;;;;;;;;;5073233;28;20453;-66
2022/09/02 03:58:33;;;;;;;60.47;4.57;;;;;;;;;;5074038;28;20487;-66
2022/09/02 04:01:00;;;;;;;60.57;4.30;;;;;;;;;;5073907;28;20501;-66
2022/09/02 04:03:28;;;;;;;61.80;5.60;;;;;;;;;;5073599;28;20470;-66
2022/09/02 04:05:55;;;;;;;61.47;5.13;;;;;;;;;;5073597;28;20826;-66
2022/09/02 04:08:22;;;;;;;61.43;5.10;;;;;;;;;;5073773;28;20452;-67
2022/09/02 04:10:50;;;;;;;62.20;5.23;;;;;;;;;;5073563;28;20964;-66
2022/09/02 04:13:17;;;;;;;62.27;4.90;;;;;;;;;;5071129;28;20487;-66
2022/09/02 04:15:47;;;;;;;60.60;4.60;;;;;;;;;;5072871;28;20964;-66
2022/09/02 04:18:15;;;;;;;60.77;5.23;;;;;;;;;;5073343;28;20443;-66
2022/09/02 04:20:42;;;;;;;61.90;5.27;;;;;;;;;;5073203;28;20462;-66
2022/09/02 04:23:10;;;;;;;60.63;4.87;;;;;;;;;;5073191;28;20464;-66
2022/09/02 04:25:39;;;;;;;62.90;5.33;;;;;;;;;;5073475;28;20444;-66
2022/09/02 04:28:06;;;;;;;63.23;5.50;;;;;;;;;;5073092;28;20970;-66
2022/09/02 04:30:33;;;;;;;61.30;4.30;;;;;;;;;;5073147;28;20783;-66
2022/09/02 04:33:02;;;;;;;61.63;5.57;;;;;;;;;;5072942;28;21012;-66
2022/09/02 04:35:29;;;;;;;61.37;5.10;;;;;;;;;;5072706;28;20459;-66
2022/09/02 04:37:56;;;;;;;60.10;4.40;;;;;;;;;;5072891;28;20458;-66
2022/09/02 04:40:23;;;;;;;61.03;5.10;;;;;;;;;;5072845;28;20527;-66
2022/09/02 04:42:52;;;;;;;60.60;5.03;;;;;;;;;;5072374;28;20525;-66
2022/09/02 04:45:19;;;;;;;60.80;5.47;;;;;;;;;;5069957;28;20544;-66
2022/09/02 04:47:47;;;;;;;61.50;6.27;;;;;;;;;;5073027;28;20548;-66
2022/09/02 04:50:15;;;;;;;64.97;7.20;;;;;;;;;;5072694;28;20447;-66
2022/09/02 04:52:43;;;;;;;61.00;4.87;;;;;;;;;;5072735;28;20491;-66
2022/09/02 04:55:11;;;;;;;61.23;5.33;;;;;;;;;;5072410;28;20448;-66
2022/09/02 04:57:38;;;;;;;61.90;5.37;;;;;;;;;;5072797;28;20455;-66
2022/09/02 05:00:06;;;;;;;60.77;4.60;;;;;;;;;;5072238;28;20447;-66
2022/09/02 05:02:33;;;;;;;61.10;5.33;;;;;;;;;;5072751;28;20482;-66
2022/09/02 05:05:00;;;;;;;61.87;5.27;;;;;;;;;;5072861;28;20451;-66
2022/09/02 05:07:29;;;;;;;64.60;6.10;;;;;;;;;;5072597;28;20455;-66
2022/09/02 05:09:57;;;;;;;60.67;4.70;;;;;;;;;;5072119;28;20454;-66
2022/09/02 05:12:26;;;;;;;61.60;5.83;;;;;;;;;;5072243;28;20463;-66
2022/09/02 05:14:54;;;;;;;60.80;4.43;;;;;;;;;;5072473;28;20873;-66
2022/09/02 05:17:22;;;;;;;61.97;4.80;;;;;;;;;;5068710;28;20952;-66
2022/09/02 05:19:49;;;;;;;62.80;4.63;;;;;;;;;;5072148;28;20443;-66
2022/09/02 05:22:16;;;;;;;60.07;4.77;;;;;;;;;;5072457;28;20471;-66
2022/09/02 05:24:45;;;;;;;63.93;6.40;;;;;;;;;;5072168;28;20815;-66
2022/09/02 05:27:14;;;;;;;59.87;4.43;;;;;;;;;;5072053;28;20453;-66
2022/09/02 05:29:42;;;;;;;62.80;4.83;;;;;;;;;;5072061;28;20448;-66
2022/09/02 05:32:09;;;;;;;60.83;5.27;;;;;;;;;;5072101;28;20447;-66
2022/09/02 05:34:37;;;;;;;61.70;5.53;;;;;;;;;;5072109;28;20513;-66
2022/09/02 05:37:05;;;;;;;60.20;4.37;;;;;;;;;;5071582;28;20459;-66
2022/09/02 05:39:32;;;;;;;62.40;5.37;;;;;;;;;;5071409;28;20458;-66
2022/09/02 05:42:01;;;;;;;61.90;5.70;;;;;;;;;;5072106;28;20447;-66
2022/09/02 05:44:30;;;;;;;60.40;4.93;;;;;;;;;;5071944;28;20812;-66
2022/09/02 05:46:57;;;;;;;62.40;4.93;;;;;;;;;;5069423;28;20864;-66
2022/09/02 05:49:25;;;;;;;60.70;5.23;;;;;;;;;;5071549;28;20449;-66
2022/09/02 05:51:53;;;;;;;60.20;4.40;;;;;;;;;;5071591;28;20847;-66
2022/09/02 05:54:21;;;;;;;61.07;4.80;;;;;;;;;;5070763;28;20574;-66
2022/09/02 05:56:49;;;;;;;60.07;4.27;;;;;;;;;;5071565;28;21163;-66
2022/09/02 05:59:19;;;;;;;59.50;4.00;;;;;;;;;;5071456;28;20450;-66
2022/09/02 06:01:46;;;;;;;61.20;4.97;;;;;;;;;;5071792;28;20491;-66
2022/09/02 06:04:13;;;;;;;59.17;3.47;;;;;;;;;;5071522;28;20908;-66
2022/09/02 06:06:42;;;;;;;59.53;4.10;;;;;;;;;;5071750;28;20447;-66
2022/09/02 06:09:10;;;;;;;61.40;5.30;;;;;;;;;;5071220;28;20451;-66
2022/09/02 06:11:39;;;;;;;62.50;4.60;;;;;;;;;;5071879;28;20448;-66
2022/09/02 06:14:06;;;;;;;60.57;4.30;;;;;;;;;;5071410;28;20523;-66
2022/09/02 06:16:36;;;;;;;61.33;4.90;;;;;;;;;;5071160;28;20464;-66
2022/09/02 06:19:03;;;;;;;61.50;5.63;;;;;;;;;;5068784;28;20895;-66
2022/09/02 06:21:30;;;;;;;60.97;4.37;;;;;;;;;;5071488;28;20956;-66
2022/09/02 06:23:57;;;;;;;61.60;4.97;;;;;;;;;;5071341;28;20844;-66
2022/09/02 06:26:25;;;;;;;59.57;4.10;;;;;;;;;;5071607;28;20453;-66
2022/09/02 06:28:52;;;;;;;59.07;3.93;;;;;;;;;;5070969;28;20447;-66
2022/09/02 06:31:20;;;;;;;62.40;4.10;;;;;;;;;;5071371;28;20458;-66
2022/09/02 06:33:49;;;;;;;60.00;4.73;;;;;;;;;;5071236;28;20495;-66
2022/09/02 06:36:17;;;;;;;60.80;3.93;;;;;;;;;;5071298;28;20466;-66
2022/09/02 06:38:47;;;;;;;61.30;5.20;;;;;;;;;;5070987;28;20443;-66
2022/09/02 06:41:17;;;;;;;60.13;4.53;;;;;;;;;;5071322;28;20447;-66
2022/09/02 06:43:44;;;;;;;60.60;4.70;;;;;;;;;;5071101;28;20465;-66
2022/09/02 06:46:15;;;;;;;59.87;4.60;;;;;;;;;;5071811;28;20807;-66
2022/09/02 06:48:42;;;;;;;61.87;4.87;;;;;;;;;;5070941;28;20448;-66
2022/09/02 06:51:15;;;;;;;60.30;4.67;;;;;;;;;;5069050;28;20449;-66
2022/09/02 06:53:43;;;;;;;59.50;3.83;;;;;;;;;;5071022;28;20490;-66
2022/09/02 06:56:10;;;;;;;59.67;4.70;;;;;;;;;;5071403;28;20824;-66
2022/09/02 06:58:37;;;;;;;59.40;4.33;;;;;;;;;;5070176;28;20470;-66
2022/09/02 07:01:04;;;;;;;60.47;4.87;;;;;;;;;;5071307;28;20962;-66
2022/09/02 07:06:17;;;;;;;59.87;4.60;;;;;;;;;;5074537;28;20419;-66
2022/09/02 07:08:44;;;;;;;62.03;3.60;;;;;;;;;;5074409;28;20821;-66
2022/09/02 07:11:16;;;;;;;59.17;3.90;;;;;;;;;;5074595;28;20446;-66
2022/09/02 07:13:43;;;;;;;59.27;4.10;;;;;;;;;;5074724;28;20490;-66
2022/09/02 07:16:10;;;;;;;61.47;4.50;;;;;;;;;;5074664;28;20494;-66
2022/09/02 07:18:38;;;;;;;59.53;4.00;;;;;;;;;;5073815;28;20459;-66
2022/09/02 07:21:05;;;;;;;60.70;3.93;;;;;;;;;;5074351;28;20479;-66
2022/09/02 07:23:33;;;;;;;58.73;3.63;;;;;;;;;;5072200;28;20476;-66
2022/09/02 07:26:00;;;;;;;59.67;4.33;;;;;;;;;;5074129;28;20459;-66
2022/09/02 07:28:27;;;;;;;60.07;4.10;;;;;;;;;;5074236;28;20454;-66
2022/09/02 07:30:55;;;;;;;58.97;3.63;;;;;;;;;;5074245;28;20446;-66
2022/09/02 07:33:22;;;;;;;59.20;3.40;;;;;;;;;;5074303;28;20488;-66
2022/09/02 07:35:52;;;;;;;59.67;3.90;;;;;;;;;;5074317;28;20459;-66
2022/09/02 07:38:19;;;;;;;61.17;4.10;;;;;;;;;;5073676;28;21003;-66
2022/09/02 07:40:49;;;;;;;59.00;3.63;;;;;;;;;;5074067;28;20950;-66
2022/09/02 07:43:17;;;;;;;58.50;3.13;;;;;;;;;;5074188;28;20459;-66
2022/09/02 07:45:44;;;;;;;58.37;3.10;;;;;;;;;;5074179;28;20460;-66
2022/09/02 07:48:11;;;;;;;59.00;3.50;;;;;;;;;;5073948;28;20945;-66
2022/09/02 07:50:39;;;;;;;58.47;3.20;;;;;;;;;;5073867;28;20443;-66
2022/09/02 07:53:06;;;;;;;58.77;3.43;;;;;;;;;;5070673;28;20472;-66
2022/09/02 07:55:34;;;;;;;59.07;3.43;;;;;;;;;;5074062;28;20443;-66
2022/09/02 07:58:04;;;;;;;58.97;3.57;;;;;;;;;;5073470;28;20447;-66
2022/09/02 08:00:32;;;;;;;58.87;3.23;;;;;;;;;;5073542;28;20958;-66
2022/09/02 08:02:59;;;;;;;58.17;2.93;;;;;;;;;;5073708;28;20987;-66
2022/09/02 08:05:26;;;;;;;58.40;3.13;;;;;;;;;;5073530;28;20553;-66
2022/09/02 08:07:54;;;;;;;58.47;3.10;;;;;;;;;;5073987;28;20457;-66
2022/09/02 08:10:23;;;;;;;59.30;3.70;;;;;;;;;;5073287;28;20455;-66
2022/09/02 08:12:50;;;;;;;58.70;3.27;;;;;;;;;;5073660;28;20849;-66
2022/09/02 08:15:19;;;;;;;59.90;3.10;;;;;;;;;;5073406;28;21006;-66
2022/09/02 08:17:47;;;;;;;59.17;3.50;;;;;;;;;;5072922;28;20443;-66
2022/09/02 08:20:15;;;;;;;58.70;3.57;;;;;;;;;;5072794;28;20453;-66
2022/09/02 08:22:43;;;;;;;58.37;2.83;;;;;;;;;;5073550;28;20868;-66
2022/09/02 08:25:10;;;;;;;58.37;3.30;;;;;;;;;;5071251;28;20443;-66
2022/09/02 08:27:38;;;;;;;58.43;2.93;;;;;;;;;;5073369;28;20486;-66
2022/09/02 08:30:05;;;;;;;58.37;3.27;;;;;;;;;;5072638;28;20443;-66
2022/09/02 08:32:34;;;;;;;58.53;3.47;;;;;;;;;;5073034;28;20463;-66
2022/09/02 08:35:01;;;;;;;58.27;3.10;;;;;;;;;;5073154;28;20493;-66
2022/09/02 08:37:30;;;;;;;58.37;2.90;;;;;;;;;;5073053;28;20550;-66
2022/09/02 08:39:57;;;;;;;58.10;2.80;;;;;;;;;;5072054;28;20935;-66
2022/09/02 08:42:26;;;;;;;58.57;3.37;;;;;;;;;;5072967;28;20463;-66
2022/09/02 08:44:57;;;;;;;58.20;2.80;;;;;;;;;;5072754;28;20512;-66
2022/09/02 08:47:28;;;;;;;58.27;2.97;;;;;;;;;;5073022;28;20452;-66
2022/09/02 08:49:58;;;;;;;58.40;3.30;;;;;;;;;;5072631;28;20486;-66
2022/09/02 08:52:29;;;;;;;58.40;2.93;;;;;;;;;;5072804;28;20469;-66
2022/09/02 08:54:56;;;;;;;58.80;3.00;;;;;;;;;;5072700;28;20479;-66
2022/09/02 08:57:25;;;;;;;58.23;3.00;;;;;;;;;;5070439;28;20455;-66
2022/09/02 08:59:53;;;;;;;58.23;2.87;;;;;;;;;;5071840;28;20494;-66
2022/09/02 09:02:24;;;;;;;59.00;2.90;;;;;;;;;;5072883;28;20497;-66
2022/09/02 09:05:01;;;;;;;58.70;3.20;;;;;;;;;;5072902;28;20427;-66
2022/09/02 09:07:31;;;;;;;58.50;2.80;;;;;;;;;;5072499;28;20454;-66
2022/09/02 09:10:04;;;;;;;58.40;2.80;;;;;;;;;;5071850;28;20447;-66
2022/09/02 09:12:36;;;;;;;62.70;3.43;;;;;;;;;;5072364;28;20471;-66
2022/09/02 09:15:06;;;;;;;59.43;3.40;;;;;;;;;;5072485;28;20857;-66
2022/09/02 09:17:37;;;;;;;58.30;2.90;;;;;;;;;;5072502;28;20454;-66
2022/09/02 09:20:08;;;;;;;58.37;2.60;;;;;;;;;;5071452;28;20447;-66
2022/09/02 09:22:37;;;;;;;58.23;2.73;;;;;;;;;;5071978;28;20467;-66
2022/09/02 09:25:09;;;;;;;58.27;2.53;;;;;;;;;;5072280;28;20466;-66
2022/09/02 09:27:37;;;;;;;58.17;2.70;;;;;;;;;;5071025;28;20462;-66
2022/09/02 09:30:06;;;;;;;58.07;2.67;;;;;;;;;;5071946;28;20847;-66
2022/09/02 09:32:34;;;;;;;60.30;3.00;;;;;;;;;;5072100;28;20467;-66
2022/09/02 09:35:02;;;;;;;58.50;3.03;;;;;;;;;;5071964;28;20483;-66
2022/09/02 09:37:32;;;;;;;58.10;2.53;;;;;;;;;;5072399;28;20878;-66
2022/09/02 09:40:00;;;;;;;57.83;2.53;;;;;;;;;;5071786;28;20454;-66
2022/09/02 09:42:34;;;;;;;57.87;2.97;;;;;;;;;;5072146;28;20823;-66
2022/09/02 09:45:15;;;;;;;58.07;2.80;;;;;;;;;;5072145;28;20450;-66
2022/09/02 09:47:42;;;;;;;59.77;3.23;;;;;;;;;;5072281;28;20912;-66
2022/09/02 09:50:11;;;;;;;57.63;2.30;;;;;;;;;;5072012;28;20459;-66
2022/09/02 09:52:39;;;;;;;58.10;3.00;;;;;;;;;;5072213;28;20460;-66
2022/09/02 09:55:17;;;;;;;58.07;2.90;;;;;;;;;;5071907;28;20487;-66
2022/09/02 09:57:45;;;;;;;57.90;2.40;;;;;;;;;;5071961;28;20462;-66
2022/09/02 10:00:20;;;;;;;59.47;2.60;;;;;;;;;;5071557;28;20822;-66
2022/09/02 10:02:48;;;;;;;57.57;2.60;;;;;;;;;;5071955;28;20471;-66
2022/09/02 10:05:28;;;;;;;57.63;2.60;;;;;;;;;;5072085;28;20473;-66
2022/09/02 10:07:58;;;;;;;57.70;2.00;;;;;;;;;;5071915;28;20868;-67
2022/09/02 10:10:25;;;;;;;57.90;2.27;;;;;;;;;;5071834;28;20453;-65
2022/09/02 10:12:54;;;;;;;57.40;2.10;;;;;;;;;;5071721;28;20975;-65
2022/09/02 10:15:26;;;;;;;57.33;2.10;;;;;;;;;;5072100;28;20483;-65
2022/09/02 10:17:55;;;;;;;57.33;2.10;;;;;;;;;;5071933;28;20489;-65
2022/09/02 10:20:26;;;;;;;57.90;2.33;;;;;;;;;;5071464;28;20451;-65
2022/09/02 10:23:06;;;;;;;57.47;2.30;;;;;;;;;;5071710;28;20820;-65
2022/09/02 10:25:36;;;;;;;57.40;2.00;;;;;;;;;;5072122;28;20450;-65
2022/09/02 10:28:10;;;;;;;57.30;2.00;;;;;;;;;;5071707;28;20815;-65
2022/09/02 10:30:42;;;;;;;57.10;1.90;;;;;;;;;;5071489;28;20458;-65
2022/09/02 10:33:14;;;;;;;56.97;1.80;;;;;;;;;;5071551;28;20474;-65
2022/09/02 10:35:43;;;;;;;57.10;2.00;;;;;;;;;;5071658;28;20489;-65
2022/09/02 10:38:24;;;;;;;64.83;2.67;;;;;;;;;;5071601;28;20562;-64
2022/09/02 10:40:53;;;;;;;56.90;1.80;;;;;;;;;;5074497;28;20962;-64
2022/09/02 10:43:26;;;;;;;57.20;2.10;;;;;;;;;;5075663;28;20467;-65
2022/09/02 10:45:55;;;;;;;57.40;2.10;;;;;;;;;;5075427;28;20931;-65
2022/09/02 10:48:28;;;;;;;57.10;2.00;;;;;;;;;;5075512;28;20451;-65
2022/09/02 10:50:56;;;;;;;57.50;2.30;;;;;;;;;;5075199;28;20443;-65
2022/09/02 10:53:30;;;;;;;56.90;1.70;;;;;;;;;;5075131;28;20549;-65
2022/09/02 10:55:59;;;;;;;57.10;1.93;;;;;;;;;;5075177;28;21003;-65
2022/09/02 10:58:31;;;;;;;57.27;2.30;;;;;;;;;;5075103;28;20443;-65
2022/09/02 11:00:58;;;;;;;57.30;2.00;;;;;;;;;;5075046;28;21022;-65
2022/09/02 11:03:29;;;;;;;57.20;2.00;;;;;;;;;;5075045;28;21014;-65
2022/09/02 11:05:58;;;;;;;57.10;1.90;;;;;;;;;;5075139;28;20439;-65
2022/09/02 11:08:32;;;;;;;56.93;1.70;;;;;;;;;;5074888;28;20454;-65
2022/09/02 11:11:03;;;;;;;57.20;1.90;;;;;;;;;;5074901;28;20453;-65
2022/09/02 11:13:34;;;;;;;57.00;2.10;;;;;;;;;;5075063;28;20463;-65
2022/09/02 11:16:03;;;;;;;56.83;1.70;;;;;;;;;;5074989;28;20505;-65
2022/09/02 11:18:33;;;;;;;57.87;1.83;;;;;;;;;;5074769;28;20447;-65
2022/09/02 11:21:04;;;;;;;57.03;1.83;;;;;;;;;;5074846;28;20447;-65
2022/09/02 11:23:35;;;;;;;56.83;1.80;;;;;;;;;;5074653;28;20479;-65
2022/09/02 11:26:06;;;;;;;57.00;1.90;;;;;;;;;;5074899;28;20475;-65
2022/09/02 11:28:36;;;;;;;56.70;1.60;;;;;;;;;;5074615;28;20443;-65
2022/09/02 11:31:06;;;;;;;56.93;1.80;;;;;;;;;;5074543;28;20538;-65
2022/09/02 11:33:39;;;;;;;56.87;1.90;;;;;;;;;;5074556;28;20499;-65
2022/09/02 11:36:06;;;;;;;56.73;1.77;;;;;;;;;;5074451;28;20494;-65
2022/09/02 11:38:37;;;;;;;56.77;1.67;;;;;;;;;;5074273;28;20538;-65
2022/09/02 11:41:13;;;;;;;56.87;1.80;;;;;;;;;;5074613;28;20450;-65
2022/09/02 11:43:45;;;;;;;56.80;1.73;;;;;;;;;;5074184;28;20549;-65
2022/09/02 11:46:40;;;;;;;57.07;1.90;;;;;;;;;;5074181;28;20531;-65
2022/09/02 11:49:25;;;;;;;56.87;1.70;;;;;;;;;;5038301;28;20460;-65
2022/09/02 11:52:00;;;;;;;57.60;2.30;;;;;;;;;;5072902;28;20522;-65
2022/09/02 11:54:32;;;;;;;56.67;1.70;;;;;;;;;;5074264;28;20451;-66
2022/09/02 11:57:01;;;;;;;57.00;1.67;;;;;;;;;;5074077;28;20443;-66
2022/09/02 11:59:43;;;;;;;56.87;2.10;;;;;;;;;;5073751;28;20939;-66
2022/09/02 12:02:12;;;;;;;56.90;2.10;;;;;;;;;;5073797;28;20448;-66
2022/09/02 12:04:39;;;;;;;56.90;2.17;;;;;;;;;;5074054;28;20535;-65
2022/09/02 12:07:26;;;;;;;57.10;2.07;;;;;;;;;;5073851;28;20534;-65
2022/09/02 12:09:55;;;;;;;57.00;1.80;;;;;;;;;;5073729;28;20446;-65
2022/09/02 12:12:41;;;;;;;57.10;1.90;;;;;;;;;;5073657;28;20850;-65
2022/09/02 12:15:13;;;;;;;56.90;1.90;;;;;;;;;;5073767;28;20901;-65
2022/09/02 12:17:45;;;;;;;56.87;1.77;;;;;;;;;;5073726;28;20815;-65
2022/09/02 12:20:32;;;;;;;56.77;1.80;;;;;;;;;;5073557;28;20473;-65
2022/09/02 12:22:59;;;;;;;58.47;2.03;;;;;;;;;;5073419;28;20827;-65
2022/09/02 12:25:41;;;;;;;56.73;1.80;;;;;;;;;;5073584;28;20447;-65
2022/09/02 12:28:29;;;;;;;57.30;1.80;;;;;;;;;;5073340;28;21009;-65
2022/09/02 12:31:11;;;;;;;56.90;1.80;;;;;;;;;;5068914;28;20460;-65
2022/09/02 12:33:39;;;;;;;56.60;1.70;;;;;;;;;;5073713;28;20517;-66
2022/09/02 12:36:07;;;;;;;61.60;2.30;;;;;;;;;;5072311;28;20826;-65
2022/09/02 12:38:35;;;;;;;57.50;2.00;;;;;;;;;;5073273;28;20216;-65
2022/09/02 12:41:29;;;;;;;56.57;1.80;;;;;;;;;;5073795;28;20449;-65
2022/09/02 12:44:10;;;;;;;57.00;1.87;;;;;;;;;;5073317;28;20463;-66
2022/09/02 12:46:47;;;;;;;57.67;1.90;;;;;;;;;;5073132;28;20443;-65
2022/09/02 12:49:22;;;;;;;57.10;2.23;;;;;;;;;;5073060;28;20446;-65
2022/09/02 12:51:53;;;;;;;56.57;1.90;;;;;;;;;;5073202;28;20446;-66
2022/09/02 12:54:24;;;;;;;56.60;1.70;;;;;;;;;;5072999;28;20948;-66
2022/09/02 12:56:53;;;;;;;56.60;1.87;;;;;;;;;;5073006;28;20575;-66
2022/09/02 12:59:26;;;;;;;56.90;2.00;;;;;;;;;;5072522;28;20451;-66
2022/09/02 13:01:58;;;;;;;57.00;1.87;;;;;;;;;;5072654;28;20452;-66
2022/09/02 13:04:29;;;;;;;56.80;1.80;;;;;;;;;;5072781;28;20449;-66
2022/09/02 13:07:11;;;;;;;57.07;2.03;;;;;;;;;;5072692;28;20440;-66
2022/09/02 13:09:49;;;;;;;57.20;1.80;;;;;;;;;;5039204;28;20530;-66
2022/09/02 13:12:28;;;;;;;56.93;1.77;;;;;;;;;;5072661;28;20459;-66
2022/09/02 13:15:12;;;;;;;57.20;2.20;;;;;;;;;;5072664;28;20472;-66
2022/09/02 13:17:53;;;;;;;56.87;1.83;;;;;;;;;;5072396;28;20457;-66
2022/09/02 13:20:33;;;;;;;56.73;1.70;;;;;;;;;;5072125;28;20486;-66
2022/09/02 13:23:08;;;;;;;56.97;1.80;;;;;;;;;;5072318;28;20463;-66
2022/09/02 13:25:45;;;;;;;57.10;1.93;;;;;;;;;;5072482;28;20443;-66
2022/09/02 13:28:33;;;;;;;56.70;1.90;;;;;;;;;;5072323;28;20447;-66
2022/09/02 13:31:07;;;;;;;56.57;2.00;;;;;;;;;;5072667;28;20447;-66
2022/09/02 13:33:34;;;;;;;56.73;1.80;;;;;;;;;;5072179;28;21005;-66
2022/09/02 13:36:01;;;;;;;56.87;2.00;;;;;;;;;;5072047;28;20487;-66
2022/09/02 13:38:29;;;;;;;57.37;1.87;;;;;;;;;;5072149;28;20447;-66
2022/09/02 13:40:57;;;;;;;57.00;2.00;;;;;;;;;;5072051;28;20458;-66
2022/09/02 13:43:27;;;;;;;56.80;1.80;;;;;;;;;;5072472;28;20463;-66
2022/09/02 13:45:55;;;;;;;56.70;2.13;;;;;;;;;;5072708;28;20500;-66
2022/09/02 13:48:25;;;;;;;57.60;2.30;;;;;;;;;;5072141;28;20473;-66
2022/09/02 13:50:54;;;;;;;56.73;2.23;;;;;;;;;;5072174;28;20447;-66
2022/09/02 13:53:25;;;;;;;57.00;2.10;;;;;;;;;;5071934;28;21049;-66
2022/09/02 13:55:53;;;;;;;56.70;2.00;;;;;;;;;;5072172;28;20569;-66
2022/09/02 13:58:23;;;;;;;57.70;2.03;;;;;;;;;;5072220;28;20443;-66
2022/09/02 14:00:50;;;;;;;57.10;2.10;;;;;;;;;;5071725;28;20454;-66
2022/09/02 14:03:19;;;;;;;56.77;1.80;;;;;;;;;;5071814;28;20474;-66
2022/09/02 14:05:49;;;;;;;56.63;1.80;;;;;;;;;;5071821;28;20448;-66
2022/09/02 14:08:16;;;;;;;56.53;1.70;;;;;;;;;;5072004;28;20822;-66
2022/09/02 14:10:44;;;;;;;57.10;1.93;;;;;;;;;;5071569;28;20966;-66
2022/09/02 14:13:13;;;;;;;56.90;1.90;;;;;;;;;;5071818;28;20471;-66
2022/09/02 14:15:40;;;;;;;56.97;2.20;;;;;;;;;;5070983;28;20479;-66
2022/09/02 14:18:08;;;;;;;56.90;2.10;;;;;;;;;;5071601;28;20819;-66
2022/09/02 14:20:35;;;;;;;56.57;1.80;;;;;;;;;;5071465;28;20447;-66
2022/09/02 14:23:04;;;;;;;57.37;2.00;;;;;;;;;;5071797;28;20463;-66
2022/09/02 14:25:34;;;;;;;56.80;2.00;;;;;;;;;;5071852;28;20450;-66
2022/09/02 14:28:01;;;;;;;56.73;1.80;;;;;;;;;;5071744;28;20447;-66
2022/09/02 14:30:33;;;;;;;57.17;2.10;;;;;;;;;;5071465;28;20829;-66
2022/09/02 14:33:24;;;;;;;57.13;2.00;;;;;;;;;;5071313;28;21055;-65
2022/09/02 14:35:58;;;;;;;57.10;2.10;;;;;;;;;;5056327;28;20483;-65
2022/09/02 14:38:27;;;;;;;58.20;3.10;;;;;;;;;;5071656;28;20451;-65
2022/09/02 14:41:02;;;;;;;57.00;1.90;;;;;;;;;;5071575;28;20444;-65
2022/09/02 14:43:31;;;;;;;57.10;1.97;;;;;;;;;;5071433;28;21005;-65
2022/09/02 14:46:05;;;;;;;56.80;1.87;;;;;;;;;;5071696;28;20444;-65
2022/09/02 14:48:36;;;;;;;56.90;2.20;;;;;;;;;;5071435;28;20457;-65